sensor_id;sensor_type;location;lat;lon;timestamp;P1;durP1;ratioP1;P2;durP2;ratioP2
77298;SDS011;66361;52.034;20.656;2023-07-09T00:03:11;12.38;;;10.70;;
77298;SDS011;66361;52.034;20.656;2023-07-09T00:07:17;13.07;;;10.80;;
77298;SDS011;66361;52.034;20.656;2023-07-09T00:11:24;11.80;;;9.25;;
77298;SDS011;66361;52.034;20.656;2023-07-09T00:15:27;12.00;;;10.13;;
77298;SDS011;66361;52.034;20.656;2023-07-09T04:34:52;7.13;;;6.43;;
77298;SDS011;66361;52.034;20.656;2023-07-09T04:38:56;7.93;;;6.60;;
77298;SDS011;66361;52.034;20.656;2023-07-09T04:42:59;8.30;;;6.43;;
77298;SDS011;66361;52.034;20.656;2023-07-09T04:47:02;6.53;;;5.70;;
77298;SDS011;66361;52.034;20.656;2023-07-09T04:51:07;6.47;;;5.50;;
77298;SDS011;66361;52.034;20.656;2023-07-09T04:55:10;8.55;;;6.22;;
77298;SDS011;66361;52.034;20.656;2023-07-09T04:59:13;6.15;;;5.30;;
77298;SDS011;66361;52.034;20.656;2023-07-09T05:03:16;8.88;;;5.30;;
77298;SDS011;66361;52.034;20.656;2023-07-09T05:07:22;7.03;;;5.00;;
77298;SDS011;66361;52.034;20.656;2023-07-09T05:11:25;7.05;;;5.13;;
77298;SDS011;66361;52.034;20.656;2023-07-09T05:15:29;5.68;;;5.10;;
77298;SDS011;66361;52.034;20.656;2023-07-09T05:19:32;6.15;;;5.10;;
77298;SDS011;66361;52.034;20.656;2023-07-09T05:23:37;6.68;;;4.53;;
77298;SDS011;66361;52.034;20.656;2023-07-09T05:27:40;5.00;;;4.30;;
77298;SDS011;66361;52.034;20.656;2023-07-09T05:31:45;4.80;;;4.38;;
77298;SDS011;66361;52.034;20.656;2023-07-09T05:35:48;6.60;;;4.35;;
77298;SDS011;66361;52.034;20.656;2023-07-09T05:39:53;5.40;;;4.40;;
77298;SDS011;66361;52.034;20.656;2023-07-09T05:43:56;5.13;;;3.95;;
77298;SDS011;66361;52.034;20.656;2023-07-09T05:47:59;4.03;;;3.58;;
77298;SDS011;66361;52.034;20.656;2023-07-09T05:52:05;4.28;;;3.88;;
77298;SDS011;66361;52.034;20.656;2023-07-09T05:56:09;4.32;;;3.92;;
77298;SDS011;66361;52.034;20.656;2023-07-09T06:00:13;6.22;;;3.60;;
77298;SDS011;66361;52.034;20.656;2023-07-09T06:04:17;5.78;;;3.38;;
77298;SDS011;66361;52.034;20.656;2023-07-09T06:08:23;3.97;;;3.25;;
77298;SDS011;66361;52.034;20.656;2023-07-09T06:12:29;4.43;;;3.10;;
77298;SDS011;66361;52.034;20.656;2023-07-09T06:16:32;5.05;;;3.92;;
77298;SDS011;66361;52.034;20.656;2023-07-09T06:20:35;4.38;;;3.95;;
77298;SDS011;66361;52.034;20.656;2023-07-09T06:24:38;5.15;;;3.00;;
77298;SDS011;66361;52.034;20.656;2023-07-09T06:28:43;3.30;;;2.80;;
77298;SDS011;66361;52.034;20.656;2023-07-09T06:32:46;3.72;;;2.70;;
77298;SDS011;66361;52.034;20.656;2023-07-09T06:36:49;3.40;;;3.10;;
77298;SDS011;66361;52.034;20.656;2023-07-09T06:40:52;3.22;;;2.88;;
77298;SDS011;66361;52.034;20.656;2023-07-09T06:44:57;3.38;;;2.80;;
77298;SDS011;66361;52.034;20.656;2023-07-09T06:49:00;3.30;;;2.70;;
77298;SDS011;66361;52.034;20.656;2023-07-09T06:53:03;3.30;;;2.67;;
77298;SDS011;66361;52.034;20.656;2023-07-09T06:57:06;4.22;;;2.70;;
77298;SDS011;66361;52.034;20.656;2023-07-09T07:01:11;3.67;;;3.00;;
77298;SDS011;66361;52.034;20.656;2023-07-09T07:05:14;4.10;;;2.97;;
77298;SDS011;66361;52.034;20.656;2023-07-09T07:09:20;4.43;;;2.72;;
77298;SDS011;66361;52.034;20.656;2023-07-09T07:13:23;3.60;;;2.88;;
77298;SDS011;66361;52.034;20.656;2023-07-09T07:17:31;3.47;;;2.90;;
77298;SDS011;66361;52.034;20.656;2023-07-09T07:21:34;3.53;;;2.80;;
77298;SDS011;66361;52.034;20.656;2023-07-09T07:25:37;3.83;;;2.47;;
77298;SDS011;66361;52.034;20.656;2023-07-09T07:29:43;3.55;;;2.60;;
77298;SDS011;66361;52.034;20.656;2023-07-09T07:33:48;3.05;;;2.50;;
77298;SDS011;66361;52.034;20.656;2023-07-09T07:37:51;5.22;;;2.60;;
77298;SDS011;66361;52.034;20.656;2023-07-09T07:41:53;4.28;;;2.80;;
77298;SDS011;66361;52.034;20.656;2023-07-09T07:45:57;6.28;;;2.88;;
77298;SDS011;66361;52.034;20.656;2023-07-09T07:50:01;4.85;;;3.03;;
77298;SDS011;66361;52.034;20.656;2023-07-09T07:54:05;6.63;;;2.80;;
77298;SDS011;66361;52.034;20.656;2023-07-09T07:58:10;3.05;;;2.50;;
77298;SDS011;66361;52.034;20.656;2023-07-09T08:02:15;4.05;;;2.55;;
77298;SDS011;66361;52.034;20.656;2023-07-09T08:06:19;3.60;;;2.47;;
77298;SDS011;66361;52.034;20.656;2023-07-09T08:10:22;3.85;;;2.42;;
77298;SDS011;66361;52.034;20.656;2023-07-09T08:14:25;2.33;;;2.10;;
77298;SDS011;66361;52.034;20.656;2023-07-09T08:18:29;4.38;;;2.45;;
77298;SDS011;66361;52.034;20.656;2023-07-09T08:22:33;3.25;;;2.50;;
77298;SDS011;66361;52.034;20.656;2023-07-09T08:26:40;3.50;;;2.80;;
77298;SDS011;66361;52.034;20.656;2023-07-09T08:30:43;3.22;;;2.53;;
77298;SDS011;66361;52.034;20.656;2023-07-09T08:34:47;4.65;;;2.30;;
77298;SDS011;66361;52.034;20.656;2023-07-09T08:39:12;4.25;;;2.65;;
77298;SDS011;66361;52.034;20.656;2023-07-09T08:43:23;8.35;;;2.78;;
77298;SDS011;66361;52.034;20.656;2023-07-09T08:47:37;4.15;;;2.80;;
77298;SDS011;66361;52.034;20.656;2023-07-09T08:51:49;4.00;;;2.60;;
77298;SDS011;66361;52.034;20.656;2023-07-09T08:55:54;4.43;;;2.40;;
77298;SDS011;66361;52.034;20.656;2023-07-09T08:59:59;4.20;;;2.30;;
77298;SDS011;66361;52.034;20.656;2023-07-09T09:04:13;4.32;;;2.35;;
77298;SDS011;66361;52.034;20.656;2023-07-09T09:08:23;3.75;;;2.30;;
77298;SDS011;66361;52.034;20.656;2023-07-09T09:12:38;3.75;;;2.40;;
77298;SDS011;66361;52.034;20.656;2023-07-09T09:16:45;6.50;;;2.30;;
77298;SDS011;66361;52.034;20.656;2023-07-09T09:20:52;3.92;;;2.50;;
77298;SDS011;66361;52.034;20.656;2023-07-09T09:25:03;5.25;;;2.25;;
77298;SDS011;66361;52.034;20.656;2023-07-09T09:29:19;3.42;;;2.17;;
77298;SDS011;66361;52.034;20.656;2023-07-09T09:33:22;3.38;;;2.10;;
77298;SDS011;66361;52.034;20.656;2023-07-09T09:37:27;8.15;;;1.80;;
77298;SDS011;66361;52.034;20.656;2023-07-09T09:41:32;2.10;;;1.50;;
77298;SDS011;66361;52.034;20.656;2023-07-09T09:49:44;2.83;;;2.00;;
77298;SDS011;66361;52.034;20.656;2023-07-09T09:53:48;3.30;;;1.67;;
77298;SDS011;66361;52.034;20.656;2023-07-09T09:57:54;4.13;;;1.80;;
77298;SDS011;66361;52.034;20.656;2023-07-09T10:02:00;2.83;;;1.70;;
77298;SDS011;66361;52.034;20.656;2023-07-09T10:06:06;2.55;;;1.92;;
77298;SDS011;66361;52.034;20.656;2023-07-09T10:10:21;2.38;;;1.75;;
77298;SDS011;66361;52.034;20.656;2023-07-09T10:14:36;1.90;;;1.60;;
77298;SDS011;66361;52.034;20.656;2023-07-09T10:18:48;2.10;;;1.60;;
77298;SDS011;66361;52.034;20.656;2023-07-09T10:23:01;2.00;;;1.77;;
77298;SDS011;66361;52.034;20.656;2023-07-09T10:27:16;2.30;;;1.70;;
77298;SDS011;66361;52.034;20.656;2023-07-09T10:31:26;3.00;;;1.83;;
77298;SDS011;66361;52.034;20.656;2023-07-09T10:35:44;2.03;;;1.50;;
77298;SDS011;66361;52.034;20.656;2023-07-09T10:39:55;1.92;;;1.70;;
77298;SDS011;66361;52.034;20.656;2023-07-09T10:44:01;1.98;;;1.70;;
77298;SDS011;66361;52.034;20.656;2023-07-09T10:48:12;2.78;;;1.60;;
77298;SDS011;66361;52.034;20.656;2023-07-09T10:52:21;3.58;;;1.55;;
77298;SDS011;66361;52.034;20.656;2023-07-09T10:56:28;2.20;;;1.60;;
77298;SDS011;66361;52.034;20.656;2023-07-09T11:00:37;7.68;;;4.63;;
77298;SDS011;66361;52.034;20.656;2023-07-09T11:04:44;2.47;;;1.60;;
77298;SDS011;66361;52.034;20.656;2023-07-09T11:08:52;2.60;;;1.83;;
77298;SDS011;66361;52.034;20.656;2023-07-09T11:17:04;3.30;;;1.90;;
77298;SDS011;66361;52.034;20.656;2023-07-09T11:21:15;2.22;;;1.63;;
77298;SDS011;66361;52.034;20.656;2023-07-09T11:25:30;2.03;;;1.80;;
77298;SDS011;66361;52.034;20.656;2023-07-09T11:29:46;2.25;;;1.45;;
77298;SDS011;66361;52.034;20.656;2023-07-09T11:38:07;2.65;;;1.70;;
77298;SDS011;66361;52.034;20.656;2023-07-09T11:42:26;2.80;;;1.98;;
77298;SDS011;66361;52.034;20.656;2023-07-09T11:46:31;2.83;;;1.73;;
77298;SDS011;66361;52.034;20.656;2023-07-09T11:50:39;4.28;;;2.92;;
77298;SDS011;66361;52.034;20.656;2023-07-09T11:54:47;4.05;;;2.03;;
77298;SDS011;66361;52.034;20.656;2023-07-09T11:58:54;2.30;;;1.70;;
77298;SDS011;66361;52.034;20.656;2023-07-09T12:02:58;2.78;;;1.98;;
77298;SDS011;66361;52.034;20.656;2023-07-09T12:07:03;2.40;;;1.75;;
77298;SDS011;66361;52.034;20.656;2023-07-09T12:11:16;2.10;;;1.55;;
77298;SDS011;66361;52.034;20.656;2023-07-09T12:15:23;2.40;;;1.70;;
77298;SDS011;66361;52.034;20.656;2023-07-09T12:19:29;6.75;;;3.13;;
77298;SDS011;66361;52.034;20.656;2023-07-09T12:23:33;1.73;;;1.50;;
77298;SDS011;66361;52.034;20.656;2023-07-09T12:27:37;2.15;;;1.60;;
77298;SDS011;66361;52.034;20.656;2023-07-09T12:31:41;2.50;;;1.70;;
77298;SDS011;66361;52.034;20.656;2023-07-09T12:35:46;1.90;;;1.42;;
77298;SDS011;66361;52.034;20.656;2023-07-09T12:39:49;2.00;;;1.40;;
77298;SDS011;66361;52.034;20.656;2023-07-09T12:43:54;1.75;;;1.50;;
77298;SDS011;66361;52.034;20.656;2023-07-09T12:47:59;2.30;;;1.38;;
77298;SDS011;66361;52.034;20.656;2023-07-09T12:52:03;1.77;;;1.40;;
77298;SDS011;66361;52.034;20.656;2023-07-09T12:56:15;3.25;;;1.77;;
77298;SDS011;66361;52.034;20.656;2023-07-09T13:00:19;6.70;;;1.63;;
77298;SDS011;66361;52.034;20.656;2023-07-09T13:04:29;2.28;;;1.40;;
77298;SDS011;66361;52.034;20.656;2023-07-09T13:08:40;2.80;;;1.48;;
77298;SDS011;66361;52.034;20.656;2023-07-09T13:12:45;2.95;;;1.75;;
77298;SDS011;66361;52.034;20.656;2023-07-09T13:17:02;2.25;;;1.38;;
77298;SDS011;66361;52.034;20.656;2023-07-09T13:21:12;1.98;;;1.45;;
77298;SDS011;66361;52.034;20.656;2023-07-09T13:25:19;1.88;;;1.50;;
77298;SDS011;66361;52.034;20.656;2023-07-09T13:29:41;1.55;;;1.40;;
77298;SDS011;66361;52.034;20.656;2023-07-09T13:33:59;2.22;;;1.75;;
77298;SDS011;66361;52.034;20.656;2023-07-09T13:38:22;3.22;;;1.75;;
77298;SDS011;66361;52.034;20.656;2023-07-09T13:42:26;3.00;;;1.67;;
77298;SDS011;66361;52.034;20.656;2023-07-09T13:46:29;3.05;;;1.90;;
77298;SDS011;66361;52.034;20.656;2023-07-09T13:50:33;3.17;;;1.77;;
77298;SDS011;66361;52.034;20.656;2023-07-09T13:54:37;2.00;;;1.70;;
77298;SDS011;66361;52.034;20.656;2023-07-09T13:58:40;2.50;;;1.67;;
77298;SDS011;66361;52.034;20.656;2023-07-09T14:02:44;2.63;;;1.70;;
77298;SDS011;66361;52.034;20.656;2023-07-09T14:06:49;2.67;;;1.60;;
77298;SDS011;66361;52.034;20.656;2023-07-09T14:10:54;2.15;;;1.80;;
77298;SDS011;66361;52.034;20.656;2023-07-09T14:14:58;2.45;;;1.60;;
77298;SDS011;66361;52.034;20.656;2023-07-09T14:19:04;3.00;;;1.60;;
77298;SDS011;66361;52.034;20.656;2023-07-09T14:23:15;1.85;;;1.42;;
77298;SDS011;66361;52.034;20.656;2023-07-09T14:27:22;3.05;;;1.83;;
77298;SDS011;66361;52.034;20.656;2023-07-09T14:31:26;3.03;;;1.60;;
77298;SDS011;66361;52.034;20.656;2023-07-09T14:35:33;1.95;;;1.73;;
77298;SDS011;66361;52.034;20.656;2023-07-09T14:39:37;2.03;;;1.70;;
77298;SDS011;66361;52.034;20.656;2023-07-09T14:43:42;2.35;;;1.88;;
77298;SDS011;66361;52.034;20.656;2023-07-09T14:47:45;2.20;;;1.52;;
77298;SDS011;66361;52.034;20.656;2023-07-09T14:51:49;2.75;;;1.73;;
77298;SDS011;66361;52.034;20.656;2023-07-09T14:55:53;2.30;;;1.67;;
77298;SDS011;66361;52.034;20.656;2023-07-09T14:59:58;2.78;;;1.70;;
77298;SDS011;66361;52.034;20.656;2023-07-09T15:04:07;1.85;;;1.60;;
77298;SDS011;66361;52.034;20.656;2023-07-09T15:08:28;2.00;;;1.70;;
77298;SDS011;66361;52.034;20.656;2023-07-09T15:12:32;3.40;;;1.90;;
77298;SDS011;66361;52.034;20.656;2023-07-09T15:16:38;3.40;;;1.70;;
77298;SDS011;66361;52.034;20.656;2023-07-09T15:20:42;2.20;;;1.90;;
77298;SDS011;66361;52.034;20.656;2023-07-09T15:24:50;1.85;;;1.60;;
77298;SDS011;66361;52.034;20.656;2023-07-09T15:28:53;2.17;;;1.80;;
77298;SDS011;66361;52.034;20.656;2023-07-09T15:32:58;4.00;;;1.83;;
77298;SDS011;66361;52.034;20.656;2023-07-09T15:37:11;3.97;;;1.88;;
77298;SDS011;66361;52.034;20.656;2023-07-09T15:41:16;3.67;;;1.70;;
77298;SDS011;66361;52.034;20.656;2023-07-09T15:45:19;2.20;;;1.50;;
77298;SDS011;66361;52.034;20.656;2023-07-09T15:49:25;1.90;;;1.60;;
77298;SDS011;66361;52.034;20.656;2023-07-09T15:53:28;2.92;;;1.80;;
77298;SDS011;66361;52.034;20.656;2023-07-09T15:57:31;3.58;;;1.70;;
77298;SDS011;66361;52.034;20.656;2023-07-09T16:01:42;2.78;;;1.73;;
77298;SDS011;66361;52.034;20.656;2023-07-09T16:05:47;2.47;;;1.63;;
77298;SDS011;66361;52.034;20.656;2023-07-09T16:09:53;3.97;;;1.98;;
77298;SDS011;66361;52.034;20.656;2023-07-09T16:13:56;2.60;;;1.92;;
77298;SDS011;66361;52.034;20.656;2023-07-09T16:17:59;2.38;;;1.70;;
77298;SDS011;66361;52.034;20.656;2023-07-09T16:22:05;2.30;;;1.70;;
77298;SDS011;66361;52.034;20.656;2023-07-09T16:26:12;4.05;;;2.65;;
77298;SDS011;66361;52.034;20.656;2023-07-09T16:30:16;3.47;;;1.83;;
77298;SDS011;66361;52.034;20.656;2023-07-09T16:34:21;2.40;;;1.90;;
77298;SDS011;66361;52.034;20.656;2023-07-09T16:38:27;2.53;;;2.05;;
77298;SDS011;66361;52.034;20.656;2023-07-09T16:42:30;2.10;;;1.70;;
77298;SDS011;66361;52.034;20.656;2023-07-09T16:46:33;2.45;;;1.80;;
77298;SDS011;66361;52.034;20.656;2023-07-09T16:50:37;3.25;;;1.80;;
77298;SDS011;66361;52.034;20.656;2023-07-09T16:54:41;2.42;;;1.80;;
77298;SDS011;66361;52.034;20.656;2023-07-09T16:58:46;2.65;;;2.03;;
77298;SDS011;66361;52.034;20.656;2023-07-09T17:02:50;2.63;;;1.67;;
77298;SDS011;66361;52.034;20.656;2023-07-09T17:06:53;2.60;;;2.00;;
77298;SDS011;66361;52.034;20.656;2023-07-09T17:11:00;2.92;;;1.83;;
77298;SDS011;66361;52.034;20.656;2023-07-09T17:15:18;4.53;;;2.03;;
77298;SDS011;66361;52.034;20.656;2023-07-09T17:19:23;3.70;;;2.20;;
77298;SDS011;66361;52.034;20.656;2023-07-09T17:23:26;3.55;;;1.70;;
77298;SDS011;66361;52.034;20.656;2023-07-09T17:27:32;6.05;;;1.88;;
77298;SDS011;66361;52.034;20.656;2023-07-09T17:31:36;2.97;;;2.05;;
77298;SDS011;66361;52.034;20.656;2023-07-09T17:35:39;2.97;;;2.10;;
77298;SDS011;66361;52.034;20.656;2023-07-09T17:39:44;3.05;;;2.25;;
77298;SDS011;66361;52.034;20.656;2023-07-09T17:43:48;18.98;;;2.80;;
77298;SDS011;66361;52.034;20.656;2023-07-09T17:47:52;5.18;;;2.13;;
77298;SDS011;66361;52.034;20.656;2023-07-09T17:51:56;3.88;;;1.92;;
77298;SDS011;66361;52.034;20.656;2023-07-09T17:56:00;3.45;;;1.80;;
77298;SDS011;66361;52.034;20.656;2023-07-09T18:00:06;2.75;;;2.00;;
77298;SDS011;66361;52.034;20.656;2023-07-09T18:04:19;3.15;;;1.80;;
77298;SDS011;66361;52.034;20.656;2023-07-09T18:08:31;2.92;;;1.88;;
77298;SDS011;66361;52.034;20.656;2023-07-09T18:12:35;4.60;;;2.08;;
77298;SDS011;66361;52.034;20.656;2023-07-09T18:16:40;3.72;;;2.13;;
77298;SDS011;66361;52.034;20.656;2023-07-09T18:20:44;3.78;;;2.28;;
77298;SDS011;66361;52.034;20.656;2023-07-09T18:24:47;3.95;;;2.30;;
77298;SDS011;66361;52.034;20.656;2023-07-09T18:28:51;3.22;;;2.03;;
77298;SDS011;66361;52.034;20.656;2023-07-09T18:32:56;4.05;;;2.40;;
77298;SDS011;66361;52.034;20.656;2023-07-09T18:37:01;7.80;;;4.22;;
77298;SDS011;66361;52.034;20.656;2023-07-09T18:41:07;4.15;;;3.42;;
77298;SDS011;66361;52.034;20.656;2023-07-09T18:45:17;7.13;;;4.35;;
77298;SDS011;66361;52.034;20.656;2023-07-09T18:49:23;5.75;;;3.20;;
77298;SDS011;66361;52.034;20.656;2023-07-09T18:53:27;4.82;;;3.25;;
77298;SDS011;66361;52.034;20.656;2023-07-09T18:57:32;5.13;;;3.47;;
77298;SDS011;66361;52.034;20.656;2023-07-09T19:01:36;5.93;;;3.33;;
77298;SDS011;66361;52.034;20.656;2023-07-09T19:05:42;6.55;;;3.40;;
77298;SDS011;66361;52.034;20.656;2023-07-09T19:09:46;4.32;;;3.17;;
77298;SDS011;66361;52.034;20.656;2023-07-09T19:13:52;5.95;;;2.83;;
77298;SDS011;66361;52.034;20.656;2023-07-09T19:17:55;4.68;;;3.10;;
77298;SDS011;66361;52.034;20.656;2023-07-09T19:21:59;6.13;;;3.38;;
77298;SDS011;66361;52.034;20.656;2023-07-09T19:26:02;7.07;;;3.38;;
77298;SDS011;66361;52.034;20.656;2023-07-09T19:30:06;4.95;;;3.40;;
77298;SDS011;66361;52.034;20.656;2023-07-09T19:34:12;6.28;;;3.13;;
77298;SDS011;66361;52.034;20.656;2023-07-09T19:42:24;4.72;;;2.88;;
77298;SDS011;66361;52.034;20.656;2023-07-09T19:46:27;5.15;;;3.20;;
77298;SDS011;66361;52.034;20.656;2023-07-09T19:50:31;3.60;;;3.10;;
77298;SDS011;66361;52.034;20.656;2023-07-09T19:54:38;5.68;;;3.30;;
77298;SDS011;66361;52.034;20.656;2023-07-09T19:58:41;7.28;;;3.80;;
77298;SDS011;66361;52.034;20.656;2023-07-09T20:02:45;5.28;;;3.58;;
77298;SDS011;66361;52.034;20.656;2023-07-09T20:06:49;4.07;;;3.40;;
77298;SDS011;66361;52.034;20.656;2023-07-09T20:10:54;5.03;;;3.78;;
77298;SDS011;66361;52.034;20.656;2023-07-09T20:14:59;8.35;;;4.03;;
77298;SDS011;66361;52.034;20.656;2023-07-09T20:19:08;4.13;;;3.38;;
77298;SDS011;66361;52.034;20.656;2023-07-09T20:23:12;5.45;;;3.25;;
77298;SDS011;66361;52.034;20.656;2023-07-09T20:27:17;4.80;;;3.30;;
77298;SDS011;66361;52.034;20.656;2023-07-09T20:31:21;4.80;;;3.00;;
77298;SDS011;66361;52.034;20.656;2023-07-09T20:35:26;5.55;;;3.10;;
77298;SDS011;66361;52.034;20.656;2023-07-09T20:39:29;8.68;;;3.60;;
77298;SDS011;66361;52.034;20.656;2023-07-09T20:43:34;4.13;;;3.08;;
77298;SDS011;66361;52.034;20.656;2023-07-09T20:47:41;7.10;;;3.50;;
77298;SDS011;66361;52.034;20.656;2023-07-09T20:51:45;4.10;;;3.00;;
77298;SDS011;66361;52.034;20.656;2023-07-09T20:55:48;4.38;;;3.10;;
77298;SDS011;66361;52.034;20.656;2023-07-09T21:00:00;4.13;;;2.78;;
77298;SDS011;66361;52.034;20.656;2023-07-09T21:04:07;4.90;;;3.22;;
77298;SDS011;66361;52.034;20.656;2023-07-09T21:08:13;5.28;;;3.50;;
77298;SDS011;66361;52.034;20.656;2023-07-09T21:12:18;6.47;;;3.50;;
77298;SDS011;66361;52.034;20.656;2023-07-09T21:16:26;6.07;;;3.25;;
77298;SDS011;66361;52.034;20.656;2023-07-09T21:20:29;5.70;;;3.40;;
77298;SDS011;66361;52.034;20.656;2023-07-09T21:24:33;4.38;;;3.50;;
77298;SDS011;66361;52.034;20.656;2023-07-09T21:28:39;7.30;;;3.63;;
77298;SDS011;66361;52.034;20.656;2023-07-09T21:32:44;3.80;;;3.40;;
77298;SDS011;66361;52.034;20.656;2023-07-09T21:36:48;4.13;;;3.42;;
77298;SDS011;66361;52.034;20.656;2023-07-09T21:40:52;4.10;;;3.22;;
77298;SDS011;66361;52.034;20.656;2023-07-09T21:44:58;4.47;;;3.47;;
77298;SDS011;66361;52.034;20.656;2023-07-09T21:49:02;3.90;;;3.20;;
77298;SDS011;66361;52.034;20.656;2023-07-09T21:53:08;6.10;;;3.67;;
77298;SDS011;66361;52.034;20.656;2023-07-09T21:57:16;4.28;;;3.53;;
77298;SDS011;66361;52.034;20.656;2023-07-09T22:01:20;4.90;;;3.70;;
77298;SDS011;66361;52.034;20.656;2023-07-09T22:05:26;4.72;;;3.90;;
77298;SDS011;66361;52.034;20.656;2023-07-09T22:09:31;5.00;;;4.03;;
77298;SDS011;66361;52.034;20.656;2023-07-09T22:13:34;6.15;;;3.78;;
77298;SDS011;66361;52.034;20.656;2023-07-09T22:17:37;6.85;;;3.72;;
77298;SDS011;66361;52.034;20.656;2023-07-09T22:21:43;4.30;;;3.47;;
77298;SDS011;66361;52.034;20.656;2023-07-09T22:25:47;7.75;;;3.78;;
77298;SDS011;66361;52.034;20.656;2023-07-09T22:29:52;8.68;;;3.90;;
77298;SDS011;66361;52.034;20.656;2023-07-09T22:33:55;5.22;;;3.50;;
77298;SDS011;66361;52.034;20.656;2023-07-09T22:38:01;8.30;;;4.03;;
77298;SDS011;66361;52.034;20.656;2023-07-09T22:42:04;4.40;;;3.70;;
77298;SDS011;66361;52.034;20.656;2023-07-09T22:46:09;7.57;;;3.55;;
77298;SDS011;66361;52.034;20.656;2023-07-09T22:50:17;5.53;;;4.20;;
77298;SDS011;66361;52.034;20.656;2023-07-09T22:54:25;6.40;;;3.75;;
77298;SDS011;66361;52.034;20.656;2023-07-09T22:58:28;5.88;;;3.70;;
77298;SDS011;66361;52.034;20.656;2023-07-09T23:02:31;4.68;;;3.50;;
77298;SDS011;66361;52.034;20.656;2023-07-09T23:06:35;4.38;;;3.70;;
77298;SDS011;66361;52.034;20.656;2023-07-09T23:10:42;5.85;;;3.90;;
77298;SDS011;66361;52.034;20.656;2023-07-09T23:14:45;5.68;;;4.03;;
77298;SDS011;66361;52.034;20.656;2023-07-09T23:18:48;5.10;;;3.58;;
77298;SDS011;66361;52.034;20.656;2023-07-09T23:22:52;4.80;;;3.88;;
77298;SDS011;66361;52.034;20.656;2023-07-09T23:26:56;7.10;;;3.88;;
77298;SDS011;66361;52.034;20.656;2023-07-09T23:31:02;5.50;;;4.30;;
77298;SDS011;66361;52.034;20.656;2023-07-09T23:35:10;5.20;;;3.72;;
77298;SDS011;66361;52.034;20.656;2023-07-09T23:39:15;7.13;;;3.70;;
77298;SDS011;66361;52.034;20.656;2023-07-09T23:43:19;5.25;;;3.95;;
77298;SDS011;66361;52.034;20.656;2023-07-09T23:47:23;4.63;;;3.38;;
77298;SDS011;66361;52.034;20.656;2023-07-09T23:51:27;5.53;;;3.80;;
77298;SDS011;66361;52.034;20.656;2023-07-09T23:55:30;9.18;;;4.40;;
77298;SDS011;66361;52.034;20.656;2023-07-09T23:59:35;5.43;;;4.22;;
